Time;durP1;ratioP1;P1;durP2;ratioP2;P2;SDS_P1;SDS_P2;PMS_P1;PMS_P2;Temp;Humidity;BMP_temperature;BMP_pressure;BME280_temperature;BME280_humidity;BME280_pressure;Samples;Min_cycle;Max_cycle;Signal;HPM_P1;HPM_P2
2023/07/25 00:00:10;;;;;;;23.02;4.82;;;;;;;-144.73;100.00;54551.38;4906924;29;20020;-72
2023/07/25 00:02:35;;;;;;;23.23;4.85;;;;;;;-144.73;100.00;54565.75;4914122;28;20036;-72
2023/07/25 00:05:02;;;;;;;18.90;5.03;;;;;;;-144.73;100.00;54510.31;4911535;28;20036;-72
2023/07/25 00:07:27;;;;;;;17.13;4.90;;;;;;;-144.73;100.00;54510.31;4910629;28;20491;-73
2023/07/25 00:09:52;;;;;;;14.10;4.40;;;;;;;-144.73;100.00;54555.47;4913121;28;20027;-73
2023/07/25 00:12:18;;;;;;;24.55;4.80;;;;;;;-144.73;100.00;54551.38;4911105;28;20036;-73
2023/07/25 00:14:43;;;;;;;24.13;5.30;;;;;;;-144.73;100.00;54569.84;4914049;28;20016;-73
2023/07/25 00:17:08;;;;;;;17.17;4.25;;;;;;;-144.73;100.00;54573.97;4911083;28;20074;-73
2023/07/25 00:19:34;;;;;;;21.85;5.00;;;;;;;-144.73;100.00;54543.16;4911260;28;20032;-73
2023/07/25 00:21:59;;;;;;;26.48;4.88;;;;;;;-144.73;100.00;54543.16;4911804;28;20032;-74
2023/07/25 00:24:24;;;;;;;21.92;5.57;;;;;;;-144.73;100.00;54555.47;4910043;28;20036;-72
2023/07/25 00:26:50;;;;;;;22.52;5.68;;;;;;;-144.73;100.00;54561.63;4984934;28;20030;-70
2023/07/25 00:29:15;;;;;;;28.58;4.75;;;;;;;-144.73;100.00;54576.00;5010555;28;20042;-70
2023/07/25 00:31:40;;;;;;;11.88;4.82;;;;;;;-144.73;100.00;54547.28;5012744;28;20060;-69
2023/07/25 00:34:06;;;;;;;26.05;5.00;;;;;;;-144.73;100.00;54559.59;5027248;28;20136;-69
2023/07/25 00:36:32;;;;;;;21.13;4.55;;;;;;;-144.73;100.00;54547.28;5011356;28;20025;-70
2023/07/25 00:38:58;;;;;;;21.08;5.70;;;;;;;-144.73;100.00;54604.75;5010394;28;20037;-70
2023/07/25 00:41:23;;;;;;;38.80;6.03;;;;;;;-144.73;100.00;54545.22;4978028;28;20028;-70
2023/07/25 00:43:49;;;;;;;14.52;5.57;;;;;;;-144.73;100.00;54522.63;4930512;28;20498;-70
2023/07/25 00:46:15;;;;;;;18.77;4.97;;;;;;;-144.73;100.00;54559.59;4930781;28;20479;-70
2023/07/25 00:48:42;;;;;;;20.73;4.97;;;;;;;-144.73;100.00;54547.28;4920249;29;20072;-70
2023/07/25 00:51:07;;;;;;;28.45;5.43;;;;;;;-144.73;100.00;54510.31;4912700;29;20028;-70
2023/07/25 00:53:33;;;;;;;24.25;5.05;;;;;;;-144.73;100.00;54522.63;4957247;28;20044;-69
2023/07/25 00:56:01;;;;;;;24.17;6.53;;;;;;;-144.73;100.00;54539.06;5001684;28;20017;-70
2023/07/25 00:58:27;;;;;;;19.02;5.32;;;;;;;-144.73;100.00;54547.28;4992962;28;20030;-70
2023/07/25 01:01:01;;;;;;;22.13;5.35;;;;;;;-144.73;100.00;54498.00;5011589;28;20484;-70
2023/07/25 01:03:27;;;;;;;23.55;5.13;;;;;;;-144.73;100.00;54551.38;5011238;28;20041;-70
2023/07/25 01:06:13;;;;;;;17.42;4.80;;;;;;;-144.73;100.00;54547.28;5011897;28;20057;-70
2023/07/25 01:08:53;;;;;;;25.88;5.47;;;;;;;-144.73;100.00;54528.81;5011632;28;20049;-70
2023/07/25 01:11:19;;;;;;;18.58;4.35;;;;;;;-144.73;100.00;54569.84;4983296;28;20032;-70
2023/07/25 01:13:45;;;;;;;19.67;4.50;;;;;;;-144.73;100.00;54596.53;4929759;28;20039;-70
2023/07/25 01:16:18;;;;;;;21.52;5.30;;;;;;;-144.73;100.00;54539.06;4930070;28;20022;-70
2023/07/25 01:18:44;;;;;;;24.50;5.40;;;;;;;-144.73;100.00;54539.06;5023863;28;20036;-70
2023/07/25 01:21:11;;;;;;;27.75;5.05;;;;;;;-144.73;100.00;54539.06;4926085;28;20387;-70
2023/07/25 01:23:38;;;;;;;22.77;4.50;;;;;;;-144.73;100.00;54584.22;5027050;28;20045;-72
2023/07/25 01:26:03;;;;;;;15.98;4.60;;;;;;;-144.73;100.00;54539.06;4931123;28;20376;-71
2023/07/25 01:28:30;;;;;;;27.00;5.18;;;;;;;-144.73;100.00;54539.06;4921854;28;20094;-69
2023/07/25 01:30:56;;;;;;;19.92;4.50;;;;;;;-144.73;100.00;54539.06;5005625;28;20063;-70
2023/07/25 01:33:22;;;;;;;17.50;4.88;;;;;;;-144.73;100.00;54563.69;4947221;28;20043;-70
2023/07/25 01:35:47;;;;;;;31.48;5.20;;;;;;;-144.73;100.00;54545.22;4929881;28;20020;-70
2023/07/25 01:38:12;;;;;;;19.42;4.35;;;;;;;-144.73;100.00;54580.13;4924225;28;20086;-67
2023/07/25 01:40:39;;;;;;;19.98;4.82;;;;;;;-144.73;100.00;54539.06;4921226;29;20031;-68
2023/07/25 01:43:05;;;;;;;19.70;4.60;;;;;;;-144.73;100.00;54555.47;4922142;28;20089;-68
2023/07/25 01:45:31;;;;;;;21.58;4.60;;;;;;;-144.73;100.00;54530.84;4930248;28;20024;-68
2023/07/25 01:47:57;;;;;;;19.05;4.35;;;;;;;-144.73;100.00;54551.38;4921844;28;20089;-69
2023/07/25 01:50:22;;;;;;;19.27;4.45;;;;;;;-144.73;100.00;54543.16;4953092;28;20067;-69
2023/07/25 01:52:47;;;;;;;19.77;4.93;;;;;;;-144.73;100.00;54571.91;4938585;28;20046;-69
2023/07/25 01:55:13;;;;;;;19.38;4.78;;;;;;;-144.73;100.00;54617.06;4986882;28;20036;-70
2023/07/25 01:57:38;;;;;;;13.48;4.07;;;;;;;-144.73;100.00;54524.69;4929625;28;20028;-70
2023/07/25 02:00:04;;;;;;;19.90;4.43;;;;;;;-144.73;100.00;54555.47;4907225;28;20400;-70
2023/07/25 02:02:29;;;;;;;26.52;4.78;;;;;;;-144.73;100.00;54545.22;4923891;28;20046;-70
2023/07/25 02:04:55;;;;;;;21.98;5.20;;;;;;;-144.73;100.00;54551.38;4929460;29;20031;-69
2023/07/25 02:07:20;;;;;;;26.17;5.80;;;;;;;-144.73;100.00;54555.47;4930634;28;20032;-68
2023/07/25 02:09:45;;;;;;;15.80;4.72;;;;;;;-144.73;100.00;54551.38;5003652;28;20033;-69
2023/07/25 02:12:11;;;;;;;30.23;6.07;;;;;;;-144.73;100.00;54580.13;4955216;28;20087;-69
2023/07/25 02:14:36;;;;;;;23.05;5.00;;;;;;;-144.73;100.00;54485.69;4922497;28;20074;-69
2023/07/25 02:17:02;;;;;;;20.73;6.10;;;;;;;-144.73;100.00;54547.28;4933788;28;20027;-69
2023/07/25 02:19:27;;;;;;;26.60;5.22;;;;;;;-144.73;100.00;54555.47;4932190;28;20031;-69
2023/07/25 02:21:52;;;;;;;28.80;6.07;;;;;;;-144.73;100.00;54557.53;4936966;28;20023;-68
2023/07/25 02:24:18;;;;;;;17.55;5.57;;;;;;;-144.73;100.00;54573.97;5012766;28;20029;-69
2023/07/25 02:26:43;;;;;;;19.77;5.57;;;;;;;-144.73;100.00;54571.91;5014348;28;20022;-69
2023/07/25 02:29:08;;;;;;;31.15;6.15;;;;;;;-144.73;100.00;54559.59;4955657;28;20032;-69
2023/07/25 02:31:34;;;;;;;26.65;5.80;;;;;;;-144.73;100.00;54567.81;5013430;28;20024;-69
2023/07/25 02:33:59;;;;;;;23.55;5.85;;;;;;;-144.73;100.00;54539.06;4916161;29;20034;-69
2023/07/25 02:36:24;;;;;;;16.58;5.63;;;;;;;-144.73;100.00;54569.84;4932660;28;20031;-69
2023/07/25 02:38:50;;;;;;;24.73;5.45;;;;;;;-144.73;100.00;54592.44;4939925;28;20421;-69
2023/07/25 02:41:15;;;;;;;31.30;6.07;;;;;;;-144.73;100.00;54549.31;5013767;28;20029;-75
2023/07/25 02:43:40;;;;;;;21.60;5.80;;;;;;;-144.73;100.00;54580.13;4959536;28;20052;-75
2023/07/25 02:46:06;;;;;;;18.40;5.05;;;;;;;-144.73;100.00;54567.81;4929175;28;20034;-75
2023/07/25 02:48:31;;;;;;;23.13;5.88;;;;;;;-144.73;100.00;54571.91;4971124;28;20050;-75
2023/07/25 02:50:56;;;;;;;20.45;5.82;;;;;;;-144.73;100.00;54559.59;4926907;28;20113;-74
2023/07/25 02:53:22;;;;;;;24.98;5.85;;;;;;;-144.73;100.00;54541.13;5010957;28;20032;-74
2023/07/25 02:55:48;;;;;;;20.00;6.13;;;;;;;-144.73;100.00;54571.91;4913365;28;20499;-74
2023/07/25 02:58:13;;;;;;;20.10;6.30;;;;;;;-144.73;100.00;54588.31;4910937;28;20040;-74
2023/07/25 03:00:38;;;;;;;33.20;6.28;;;;;;;-144.73;100.00;54547.28;4905480;28;20119;-74
2023/07/25 03:03:04;;;;;;;23.15;6.45;;;;;;;-144.73;100.00;54592.44;4911698;28;20032;-74
2023/07/25 03:05:29;;;;;;;20.25;6.80;;;;;;;-144.73;100.00;54584.22;4906471;28;20033;-75
2023/07/25 03:07:56;;;;;;;18.17;6.45;;;;;;;-144.73;100.00;54584.22;4910947;28;20068;-75
2023/07/25 03:10:22;;;;;;;25.00;6.97;;;;;;;-144.73;100.00;54584.22;4911615;28;20044;-74
2023/07/25 03:12:47;;;;;;;25.35;7.13;;;;;;;-144.73;100.00;54567.81;4904227;28;20040;-74
2023/07/25 03:15:13;;;;;;;30.02;7.10;;;;;;;-144.73;100.00;54602.69;4911762;29;20013;-74
2023/07/25 03:17:38;;;;;;;21.92;6.57;;;;;;;-144.73;100.00;54518.53;4912803;28;20028;-75
2023/07/25 03:20:04;;;;;;;27.48;7.32;;;;;;;-144.73;100.00;54541.13;4905429;29;20032;-75
2023/07/25 03:22:29;;;;;;;23.05;7.03;;;;;;;-144.73;100.00;54567.81;4911998;28;20394;-74
2023/07/25 03:24:55;;;;;;;16.60;5.97;;;;;;;-144.73;100.00;54555.47;4905627;28;20025;-74
2023/07/25 03:27:20;;;;;;;32.13;7.47;;;;;;;-144.73;100.00;54555.47;4912008;28;20031;-74
2023/07/25 03:29:45;;;;;;;19.98;7.35;;;;;;;-144.73;100.00;54547.28;4916226;28;20526;-74
2023/07/25 03:32:11;;;;;;;17.33;6.72;;;;;;;-144.73;100.00;54576.00;4913004;28;20127;-75
2023/07/25 03:34:36;;;;;;;17.88;7.57;;;;;;;-144.73;100.00;54567.81;4915315;28;20519;-74
2023/07/25 03:37:01;;;;;;;37.33;8.32;;;;;;;-144.73;100.00;54571.91;4919237;28;20029;-74
2023/07/25 03:39:27;;;;;;;25.58;8.32;;;;;;;-144.73;100.00;54576.00;4976581;28;20117;-75
2023/07/25 03:41:53;;;;;;;27.58;7.63;;;;;;;-144.73;100.00;54543.16;4938857;28;20115;-74
2023/07/25 03:44:19;;;;;;;21.58;7.68;;;;;;;-144.73;100.00;54551.38;5009148;28;20090;-74
2023/07/25 03:46:44;;;;;;;17.98;7.82;;;;;;;-144.73;100.00;54547.28;4965266;28;20025;-74
2023/07/25 03:49:11;;;;;;;23.27;9.35;;;;;;;-144.73;100.00;54580.13;4907754;28;20033;-73
2023/07/25 03:51:36;;;;;;;36.00;7.22;;;;;;;-144.73;100.00;54563.69;4911378;28;20028;-74
2023/07/25 03:54:06;;;;;;;27.75;8.35;;;;;;;-144.73;100.00;54604.75;4901093;28;20059;-74
2023/07/25 03:56:33;;;;;;;16.98;6.70;;;;;;;-144.73;100.00;54498.00;4902457;28;20036;-74
2023/07/25 03:58:59;;;;;;;26.15;7.18;;;;;;;-144.73;100.00;54551.38;4952701;28;20044;-74
2023/07/25 04:01:25;;;;;;;16.65;7.35;;;;;;;-144.73;100.00;54539.06;4980553;28;20035;-74
2023/07/25 04:03:50;;;;;;;26.83;7.60;;;;;;;-144.73;100.00;54541.13;4957607;28;20029;-75
2023/07/25 04:06:15;;;;;;;26.02;7.35;;;;;;;-144.73;100.00;54596.53;4970818;28;20037;-74
2023/07/25 04:08:41;;;;;;;19.90;7.05;;;;;;;-144.73;100.00;54541.13;5004176;28;20524;-74
2023/07/25 04:11:06;;;;;;;25.58;6.53;;;;;;;-144.73;100.00;54571.91;5010710;28;20035;-74
2023/07/25 04:13:31;;;;;;;19.60;6.88;;;;;;;-144.73;100.00;54551.38;4948526;28;20039;-74
2023/07/25 04:15:57;;;;;;;27.80;6.95;;;;;;;-144.73;100.00;54600.63;4978850;28;20088;-74
2023/07/25 04:18:22;;;;;;;19.65;6.78;;;;;;;-144.73;100.00;54530.84;5009339;28;20043;-74
2023/07/25 04:20:48;;;;;;;23.65;6.53;;;;;;;-144.73;100.00;54582.16;4916331;28;20110;-75
2023/07/25 04:23:14;;;;;;;24.50;7.90;;;;;;;-144.73;100.00;54563.69;5009056;28;20043;-75
2023/07/25 04:25:40;;;;;;;18.67;5.97;;;;;;;-144.73;100.00;54580.13;4951790;28;20487;-75
2023/07/25 04:28:05;;;;;;;23.52;7.05;;;;;;;-144.73;100.00;54563.69;4914081;28;20048;-75
2023/07/25 04:30:30;;;;;;;15.52;6.35;;;;;;;-144.73;100.00;54551.38;4951808;28;20111;-75
2023/07/25 04:32:56;;;;;;;19.60;7.32;;;;;;;-144.73;100.00;54551.38;4998717;28;20042;-76
2023/07/25 04:35:21;;;;;;;19.80;6.85;;;;;;;-144.73;100.00;54557.53;4943381;28;20525;-75
2023/07/25 04:37:46;;;;;;;31.50;7.18;;;;;;;-144.73;100.00;54541.13;4914540;28;20115;-75
2023/07/25 04:40:12;;;;;;;26.70;6.72;;;;;;;-144.73;100.00;54539.06;4911811;29;20055;-75
2023/07/25 04:42:37;;;;;;;21.45;7.40;;;;;;;-144.73;100.00;54576.00;4911348;28;20067;-75
2023/07/25 04:45:04;;;;;;;23.25;7.05;;;;;;;-144.73;100.00;54518.53;5011710;28;20028;-76
2023/07/25 04:47:29;;;;;;;31.90;8.90;;;;;;;-144.73;100.00;54567.81;4910407;28;20027;-75
2023/07/25 04:49:54;;;;;;;23.52;7.22;;;;;;;-144.73;100.00;54584.22;4923146;28;20028;-76
2023/07/25 04:52:20;;;;;;;21.65;8.00;;;;;;;-144.73;100.00;54539.06;5002705;28;20374;-76
2023/07/25 04:54:45;;;;;;;21.00;7.70;;;;;;;-144.73;100.00;54569.84;4967530;28;20491;-76
2023/07/25 04:57:10;;;;;;;25.33;7.95;;;;;;;-144.73;100.00;54571.91;4952284;28;20020;-76
2023/07/25 04:59:36;;;;;;;19.10;7.40;;;;;;;-144.73;100.00;54567.81;4978947;28;20103;-76
2023/07/25 05:02:01;;;;;;;19.42;7.60;;;;;;;-144.73;100.00;54567.81;4960226;28;20028;-76
2023/07/25 05:04:26;;;;;;;24.90;7.65;;;;;;;-144.73;100.00;54604.75;4945468;28;20119;-76
2023/07/25 05:06:52;;;;;;;23.20;7.90;;;;;;;-144.73;100.00;54571.91;4953468;28;20152;-75
2023/07/25 05:09:19;;;;;;;23.10;7.50;;;;;;;-144.73;100.00;54578.06;4982126;28;20049;-75
2023/07/25 05:11:47;;;;;;;27.48;8.27;;;;;;;-144.73;100.00;54576.00;4951864;28;20032;-75
2023/07/25 05:14:12;;;;;;;20.15;7.18;;;;;;;-144.73;100.00;54547.28;4970310;28;20087;-75
2023/07/25 05:16:38;;;;;;;18.63;7.50;;;;;;;-144.73;100.00;54559.59;4920025;28;20103;-76
2023/07/25 05:19:03;;;;;;;16.63;6.32;;;;;;;-144.73;100.00;54539.06;4916144;28;20438;-76
2023/07/25 05:21:28;;;;;;;20.10;6.43;;;;;;;-144.73;100.00;54530.84;4910017;28;20028;-76
2023/07/25 05:23:54;;;;;;;16.95;6.55;;;;;;;-144.73;100.00;54547.28;4908865;28;20047;-76
2023/07/25 05:26:19;;;;;;;26.35;6.18;;;;;;;-144.73;100.00;54588.31;4916395;28;20029;-76
2023/07/25 05:28:45;;;;;;;25.02;7.30;;;;;;;-144.73;100.00;54567.81;4950205;28;20044;-76
2023/07/25 05:31:10;;;;;;;34.70;7.25;;;;;;;-144.73;100.00;54567.81;4920396;28;20032;-74
2023/07/25 05:33:35;;;;;;;18.77;6.80;;;;;;;-144.73;100.00;54539.06;4946535;28;20556;-76
2023/07/25 05:36:02;;;;;;;18.38;5.60;;;;;;;-144.73;100.00;54571.91;4920929;28;20026;-75
2023/07/25 05:38:27;;;;;;;25.10;6.10;;;;;;;-144.73;100.00;54559.59;5025585;28;20034;-75
2023/07/25 05:40:56;;;;;;;23.05;6.40;;;;;;;-144.73;100.00;54543.16;4970725;28;20021;-75
2023/07/25 05:43:21;;;;;;;20.42;5.72;;;;;;;-144.73;100.00;54493.91;4946475;28;20030;-75
2023/07/25 05:45:47;;;;;;;25.67;5.30;;;;;;;-144.73;100.00;54592.44;5019304;28;20099;-76
2023/07/25 05:48:12;;;;;;;21.67;6.10;;;;;;;-144.73;100.00;54576.00;4930244;28;20049;-75
2023/07/25 05:50:37;;;;;;;26.20;6.15;;;;;;;-144.73;100.00;54571.91;4967373;28;20028;-75
2023/07/25 05:53:03;;;;;;;19.63;5.35;;;;;;;-144.73;100.00;54522.63;4920487;28;20040;-75
2023/07/25 05:55:29;;;;;;;20.20;6.10;;;;;;;-144.73;100.00;54571.91;4917926;28;20027;-76
2023/07/25 05:57:54;;;;;;;15.75;6.10;;;;;;;-144.73;100.00;54551.38;4953897;28;20035;-76
2023/07/25 06:00:19;;;;;;;20.80;5.13;;;;;;;-144.73;100.00;54580.13;4913033;28;20032;-76
2023/07/25 06:02:45;;;;;;;11.45;5.43;;;;;;;-144.73;100.00;54522.63;4913024;28;20054;-77
2023/07/25 06:05:10;;;;;;;29.65;6.53;;;;;;;-144.73;100.00;54547.28;4915007;29;20079;-76
2023/07/25 06:07:36;;;;;;;20.95;6.30;;;;;;;-144.73;100.00;54547.28;4951287;28;20033;-76
2023/07/25 06:10:01;;;;;;;14.68;5.05;;;;;;;-144.73;100.00;54571.91;5028940;28;20034;-75
2023/07/25 06:12:26;;;;;;;21.90;6.40;;;;;;;-144.73;100.00;54596.53;4999754;28;20028;-76
2023/07/25 06:14:52;;;;;;;16.00;5.20;;;;;;;-144.73;100.00;54543.16;5020446;28;20067;-76
2023/07/25 06:17:17;;;;;;;21.02;4.75;;;;;;;-144.73;100.00;54578.06;5029345;28;20022;-76
2023/07/25 06:19:45;;;;;;;20.55;4.22;;;;;;;-144.73;100.00;54530.84;5008596;28;20014;-76
2023/07/25 06:22:11;;;;;;;14.48;4.65;;;;;;;-144.73;100.00;54559.59;4998329;28;20526;-75
2023/07/25 06:24:37;;;;;;;17.55;4.68;;;;;;;-144.73;100.00;54559.59;4915755;28;20035;-75
2023/07/25 06:27:06;;;;;;;13.05;4.70;;;;;;;-144.73;100.00;54545.22;4985124;28;20068;-75
2023/07/25 06:29:31;;;;;;;13.90;4.40;;;;;;;-144.73;100.00;54555.47;4916939;28;20032;-76
2023/07/25 06:31:57;;;;;;;16.27;4.70;;;;;;;-144.73;100.00;54559.59;4959566;28;20039;-75
2023/07/25 06:34:22;;;;;;;19.50;4.72;;;;;;;-144.73;100.00;54514.44;4971108;28;20033;-76
2023/07/25 06:36:47;;;;;;;16.38;4.57;;;;;;;-144.73;100.00;54539.06;4970426;28;20020;-76
2023/07/25 06:39:13;;;;;;;22.92;4.65;;;;;;;-144.73;100.00;54485.69;4949465;28;20063;-75
2023/07/25 06:41:38;;;;;;;17.92;4.60;;;;;;;-144.73;100.00;54576.00;4956239;28;20029;-75
2023/07/25 06:44:03;;;;;;;21.75;4.93;;;;;;;-144.73;100.00;54543.16;4924400;28;20087;-75
2023/07/25 06:46:29;;;;;;;18.95;4.63;;;;;;;-144.73;100.00;54549.31;4951327;28;20116;-75
2023/07/25 06:48:54;;;;;;;19.10;4.35;;;;;;;-144.73;100.00;54580.13;4911840;28;20035;-77
2023/07/25 06:51:20;;;;;;;18.85;4.35;;;;;;;-144.73;100.00;54551.38;4912038;28;20896;-75
2023/07/25 06:53:45;;;;;;;11.10;4.10;;;;;;;-144.73;100.00;54576.00;5010694;28;20123;-76
2023/07/25 06:56:11;;;;;;;26.88;4.72;;;;;;;-144.73;100.00;54539.06;4909828;28;20471;-75
2023/07/25 06:58:36;;;;;;;19.95;3.97;;;;;;;-144.73;100.00;54555.47;4919143;28;20033;-75
2023/07/25 07:01:01;;;;;;;21.13;4.38;;;;;;;-144.73;100.00;54551.38;4946394;28;20076;-75
2023/07/25 07:03:27;;;;;;;15.88;4.13;;;;;;;-144.73;100.00;54596.53;4943560;28;20057;-77
2023/07/25 07:05:53;;;;;;;18.42;4.10;;;;;;;-144.73;100.00;54563.69;4924327;28;20024;-76
2023/07/25 07:08:38;;;;;;;16.70;3.80;;;;;;;-144.73;100.00;54547.28;4935247;28;20120;-76
2023/07/25 07:11:03;;;;;;;35.28;4.18;;;;;;;-144.73;100.00;54539.06;4912256;28;20076;-76
2023/07/25 07:13:29;;;;;;;26.33;4.00;;;;;;;-144.73;100.00;54510.31;4912724;28;20039;-76
2023/07/25 07:15:54;;;;;;;19.08;3.60;;;;;;;-144.73;100.00;54539.06;4912851;28;20099;-77
2023/07/25 07:18:19;;;;;;;11.93;4.03;;;;;;;-144.73;100.00;54539.06;5027395;28;20109;-77
2023/07/25 07:20:48;;;;;;;16.23;4.07;;;;;;;-144.73;100.00;54539.06;4929235;28;20020;-77
2023/07/25 07:23:15;;;;;;;17.58;3.47;;;;;;;-144.73;100.00;54551.38;4938326;28;20032;-76
2023/07/25 07:25:41;;;;;;;17.75;4.38;;;;;;;-144.73;100.00;54545.22;4918902;28;20024;-77
2023/07/25 07:28:07;;;;;;;20.92;4.32;;;;;;;-144.73;100.00;54498.00;4928508;28;20526;-77
2023/07/25 07:30:32;;;;;;;17.83;3.95;;;;;;;-144.73;100.00;54559.59;4984091;28;20104;-77
2023/07/25 07:32:58;;;;;;;11.40;3.08;;;;;;;-144.73;100.00;54510.31;4950128;28;20036;-77
2023/07/25 07:35:23;;;;;;;21.42;4.18;;;;;;;-144.73;100.00;54567.81;4977002;28;20020;-76
2023/07/25 07:37:49;;;;;;;20.65;3.75;;;;;;;-144.73;100.00;54524.69;4967111;28;20113;-76
2023/07/25 07:40:14;;;;;;;16.33;3.35;;;;;;;-144.73;100.00;54539.06;4932383;28;20402;-77
2023/07/25 07:42:39;;;;;;;25.25;3.17;;;;;;;-144.73;100.00;54522.63;5027493;28;20057;-77
2023/07/25 07:45:05;;;;;;;20.13;3.20;;;;;;;-144.73;100.00;54514.44;5014270;28;20105;-77
2023/07/25 07:47:31;;;;;;;17.42;3.90;;;;;;;-144.73;100.00;54489.81;4954641;28;20557;-77
2023/07/25 07:49:56;;;;;;;16.38;3.33;;;;;;;-144.73;100.00;54551.38;4953768;28;20055;-80
2023/07/25 07:52:22;;;;;;;9.82;2.58;;;;;;;-144.73;100.00;54522.63;4922837;28;20051;-77
2023/07/25 07:54:47;;;;;;;13.65;3.38;;;;;;;-144.73;100.00;54526.75;4952849;28;20016;-77
2023/07/25 07:57:13;;;;;;;19.77;3.40;;;;;;;-144.73;100.00;54547.28;4960800;28;20036;-77
2023/07/25 07:59:38;;;;;;;18.00;4.07;;;;;;;-144.73;100.00;54586.28;4941860;28;20034;-76
2023/07/25 08:02:04;;;;;;;28.40;4.72;;;;;;;-144.73;100.00;54559.59;4940914;28;20048;-76
2023/07/25 08:04:29;;;;;;;15.88;4.75;;;;;;;-144.73;100.00;54578.06;4950604;28;20096;-77
2023/07/25 08:06:54;;;;;;;28.05;4.53;;;;;;;-144.73;100.00;54543.16;4935669;28;20024;-78
2023/07/25 08:09:19;;;;;;;13.15;4.38;;;;;;;-144.73;100.00;54571.91;4914807;28;20090;-78
2023/07/25 08:11:45;;;;;;;30.40;5.43;;;;;;;-144.73;100.00;54510.31;5009702;28;20028;-77
2023/07/25 08:14:10;;;;;;;18.67;4.28;;;;;;;-144.73;100.00;54580.13;4910992;28;20040;-76
2023/07/25 08:16:36;;;;;;;15.52;4.53;;;;;;;-144.73;100.00;54539.06;4912702;28;20016;-77
2023/07/25 08:19:01;;;;;;;15.18;4.03;;;;;;;-144.73;100.00;54530.84;4938178;28;20083;-77
2023/07/25 08:21:26;;;;;;;16.13;4.32;;;;;;;-144.73;100.00;54567.81;4972716;28;20036;-77
2023/07/25 08:23:52;;;;;;;24.08;4.70;;;;;;;-144.73;100.00;54547.28;4945930;28;20064;-75
2023/07/25 08:26:17;;;;;;;33.83;7.30;;;;;;;-144.73;100.00;54543.16;4958124;28;20023;-74
2023/07/25 08:28:43;;;;;;;26.60;6.32;;;;;;;-144.73;100.00;54541.13;4970815;28;20497;-75
2023/07/25 08:31:08;;;;;;;35.00;8.32;;;;;;;-144.73;100.00;54559.59;4969622;28;20113;-75
2023/07/25 08:33:37;;;;;;;20.30;4.47;;;;;;;-144.73;100.00;54539.06;4914536;28;20056;-75
2023/07/25 08:36:03;;;;;;;16.63;3.92;;;;;;;-144.73;100.00;54573.97;4961977;28;20041;-74
2023/07/25 08:38:28;;;;;;;21.42;4.93;;;;;;;-144.73;100.00;54549.31;4970679;28;20060;-75
2023/07/25 08:41:02;;;;;;;20.10;4.63;;;;;;;-144.73;100.00;54530.84;4962595;28;20022;-73
2023/07/25 08:43:29;;;;;;;21.58;4.95;;;;;;;-144.73;100.00;54539.06;4930742;28;20034;-75
2023/07/25 08:45:58;;;;;;;14.57;5.20;;;;;;;-144.73;100.00;54555.47;4979019;28;20026;-75
2023/07/25 08:48:26;;;;;;;20.77;5.30;;;;;;;-144.73;100.00;54526.75;4984373;28;20129;-75
2023/07/25 08:50:55;;;;;;;25.20;5.80;;;;;;;-144.73;100.00;54477.47;4969562;28;20034;-75
2023/07/25 08:53:23;;;;;;;17.10;4.35;;;;;;;-144.73;100.00;54604.75;4979266;28;20048;-75
2023/07/25 08:55:51;;;;;;;19.88;4.90;;;;;;;-144.73;100.00;54518.53;4960006;28;20018;-76
2023/07/25 08:58:16;;;;;;;20.23;4.82;;;;;;;-144.73;100.00;54520.59;4924910;28;20040;-76
2023/07/25 09:00:43;;;;;;;18.27;4.78;;;;;;;-144.73;100.00;54563.69;4912316;28;20051;-76
2023/07/25 09:03:09;;;;;;;17.35;5.20;;;;;;;-144.73;100.00;54530.84;4911499;28;20044;-76
2023/07/25 09:05:34;;;;;;;18.63;5.15;;;;;;;-144.73;100.00;54514.44;4910769;28;20086;-77
2023/07/25 09:08:00;;;;;;;12.50;4.80;;;;;;;-144.73;100.00;54555.47;4918284;28;20100;-76
2023/07/25 09:10:29;;;;;;;13.50;4.45;;;;;;;-144.73;100.00;54567.81;4936186;28;20077;-77
2023/07/25 09:12:55;;;;;;;18.65;4.50;;;;;;;-144.73;100.00;54526.75;4926641;28;20051;-77
2023/07/25 09:15:20;;;;;;;12.88;2.95;;;;;;;-144.73;100.00;54530.84;4949384;28;20026;-78
2023/07/25 09:17:46;;;;;;;10.25;3.20;;;;;;;-144.73;100.00;54510.31;4935506;28;20158;-77
2023/07/25 09:20:12;;;;;;;9.45;3.45;;;;;;;-144.73;100.00;54559.59;4944598;28;20038;-77
2023/07/25 09:22:37;;;;;;;15.10;3.70;;;;;;;-144.73;100.00;54502.13;4967815;28;20026;-76
2023/07/25 09:25:07;;;;;;;17.13;4.43;;;;;;;-144.73;100.00;54543.16;4946620;28;20041;-76
2023/07/25 09:27:34;;;;;;;17.27;4.47;;;;;;;-144.73;100.00;54543.16;5024105;28;20032;-76
2023/07/25 09:29:59;;;;;;;11.60;2.40;;;;;;;-144.73;100.00;54530.84;4974999;28;20041;-76
2023/07/25 09:32:27;;;;;;;6.10;2.20;;;;;;;-144.73;100.00;54539.06;4964427;28;20111;-75
2023/07/25 09:34:56;;;;;;;11.50;2.28;;;;;;;-144.73;100.00;54518.53;4955583;28;20023;-77
2023/07/25 09:37:22;;;;;;;11.07;1.98;;;;;;;-144.73;100.00;54524.69;4910188;28;20052;-76
2023/07/25 09:39:48;;;;;;;7.40;2.40;;;;;;;-144.73;100.00;54543.16;4911017;28;20052;-76
2023/07/25 09:42:14;;;;;;;15.93;3.20;;;;;;;-144.73;100.00;54551.38;4916285;28;20036;-76
2023/07/25 09:44:52;;;;;;;9.20;2.33;;;;;;;-144.73;100.00;54571.91;4911034;28;20043;-76
2023/07/25 09:47:23;;;;;;;9.77;2.35;;;;;;;-144.73;100.00;54551.38;4907923;28;20028;-77
2023/07/25 09:49:50;;;;;;;10.52;3.60;;;;;;;-144.73;100.00;54510.31;4919838;28;20090;-75
2023/07/25 09:52:15;;;;;;;11.85;2.75;;;;;;;-144.73;100.00;54539.06;4963541;28;20036;-76
2023/07/25 09:54:41;;;;;;;13.63;3.10;;;;;;;-144.73;100.00;54543.16;4986898;28;20030;-76
2023/07/25 09:57:07;;;;;;;6.00;2.70;;;;;;;-144.73;100.00;54580.13;4933444;28;20512;-76
2023/07/25 09:59:34;;;;;;;16.38;3.08;;;;;;;-144.73;100.00;54522.63;4978904;28;20036;-76
2023/07/25 10:02:00;;;;;;;11.57;2.90;;;;;;;-144.73;100.00;54469.28;4972520;28;20510;-76
2023/07/25 10:04:26;;;;;;;14.68;3.35;;;;;;;-144.73;100.00;54604.75;4969098;28;20077;-76
2023/07/25 10:06:52;;;;;;;7.95;2.90;;;;;;;-144.73;100.00;54551.38;4926541;28;20039;-75
2023/07/25 10:09:18;;;;;;;13.68;2.83;;;;;;;-144.73;100.00;54485.69;4940294;28;20043;-77
2023/07/25 10:11:44;;;;;;;12.07;2.75;;;;;;;-144.73;100.00;54514.44;4925144;28;20022;-76
2023/07/25 10:14:10;;;;;;;15.52;2.72;;;;;;;-144.73;100.00;54506.22;4953229;28;20048;-74
2023/07/25 10:16:37;;;;;;;16.15;3.33;;;;;;;-144.73;100.00;54522.63;4951675;28;20056;-75
2023/07/25 10:19:05;;;;;;;11.25;2.75;;;;;;;-144.73;100.00;54543.16;4933823;28;20044;-77
2023/07/25 10:21:49;;;;;;;9.55;3.67;;;;;;;-144.73;100.00;54518.53;4961924;28;20034;-76
2023/07/25 10:24:15;;;;;;;12.27;3.45;;;;;;;-144.73;100.00;54514.44;4923582;28;20487;-76
2023/07/25 10:26:57;;;;;;;11.85;2.78;;;;;;;-144.73;100.00;54498.00;4976794;28;20264;-76
2023/07/25 10:29:42;;;;;;;21.48;2.92;;;;;;;-144.73;100.00;54485.69;4961519;28;20034;-75
2023/07/25 10:32:12;;;;;;;11.23;2.80;;;;;;;-144.73;100.00;54504.16;5000932;28;20072;-76
2023/07/25 10:34:50;;;;;;;8.70;2.67;;;;;;;-144.73;100.00;54522.63;4973195;28;20115;-75
2023/07/25 10:37:22;;;;;;;11.77;2.35;;;;;;;-144.73;100.00;54563.69;4927995;28;20052;-75
2023/07/25 10:40:06;;;;;;;7.50;2.30;;;;;;;-144.73;100.00;54512.38;5018052;28;20120;-76
2023/07/25 10:42:42;;;;;;;11.20;2.97;;;;;;;-144.73;100.00;54456.97;4936051;28;20028;-76
2023/07/25 10:45:20;;;;;;;9.90;2.50;;;;;;;-144.73;100.00;54506.22;5010275;28;20082;-75
2023/07/25 10:47:49;;;;;;;6.93;2.13;;;;;;;-144.73;100.00;54498.00;4942951;28;20364;-76
2023/07/25 10:50:19;;;;;;;10.65;2.47;;;;;;;-144.73;100.00;54452.84;4958409;28;20025;-76
2023/07/25 10:52:46;;;;;;;13.32;2.65;;;;;;;-144.73;100.00;54604.75;4926892;28;20518;-76
2023/07/25 10:55:12;;;;;;;11.45;2.85;;;;;;;-144.73;100.00;54463.13;4918694;28;20019;-76
2023/07/25 10:57:38;;;;;;;8.45;2.15;;;;;;;-144.73;100.00;54493.91;4933528;28;20554;-76